sensor_id;sensor_type;location;lat;lon;timestamp;temperature;humidity
68804;SHT31;55787;52.678;13.314;2023-04-01T00:01:44;9.16;99.69
68804;SHT31;55787;52.678;13.314;2023-04-01T00:04:11;9.19;99.99
68804;SHT31;55787;52.678;13.314;2023-04-01T00:06:38;9.19;99.98
68804;SHT31;55787;52.678;13.314;2023-04-01T00:09:04;9.18;99.92
68804;SHT31;55787;52.678;13.314;2023-04-01T00:11:32;9.15;99.96
68804;SHT31;55787;52.678;13.314;2023-04-01T00:13:58;9.16;99.91
68804;SHT31;55787;52.678;13.314;2023-04-01T00:16:25;9.15;99.99
68804;SHT31;55787;52.678;13.314;2023-04-01T00:18:52;9.14;99.99
68804;SHT31;55787;52.678;13.314;2023-04-01T00:21:19;9.12;99.99
68804;SHT31;55787;52.678;13.314;2023-04-01T00:23:47;9.14;99.99
68804;SHT31;55787;52.678;13.314;2023-04-01T00:26:13;9.12;99.99
68804;SHT31;55787;52.678;13.314;2023-04-01T00:28:41;9.10;99.99
68804;SHT31;55787;52.678;13.314;2023-04-01T00:31:09;9.11;99.99
68804;SHT31;55787;52.678;13.314;2023-04-01T00:33:37;9.10;99.99
68804;SHT31;55787;52.678;13.314;2023-04-01T00:36:12;9.11;99.99
68804;SHT31;55787;52.678;13.314;2023-04-01T00:38:39;9.11;99.98
68804;SHT31;55787;52.678;13.314;2023-04-01T00:41:07;9.07;99.95
68804;SHT31;55787;52.678;13.314;2023-04-01T00:43:34;9.08;99.99
68804;SHT31;55787;52.678;13.314;2023-04-01T00:46:00;9.04;99.99
68804;SHT31;55787;52.678;13.314;2023-04-01T00:48:33;9.02;99.99
68804;SHT31;55787;52.678;13.314;2023-04-01T00:51:05;9.04;99.99
68804;SHT31;55787;52.678;13.314;2023-04-01T00:53:35;9.04;99.99
68804;SHT31;55787;52.678;13.314;2023-04-01T00:56:19;9.04;99.99
68804;SHT31;55787;52.678;13.314;2023-04-01T00:58:51;9.04;99.99
68804;SHT31;55787;52.678;13.314;2023-04-01T01:01:20;9.05;99.99
68804;SHT31;55787;52.678;13.314;2023-04-01T01:03:48;9.01;99.99
68804;SHT31;55787;52.678;13.314;2023-04-01T01:25:21;9.07;99.96
68804;SHT31;55787;52.678;13.314;2023-04-01T01:31:23;9.02;99.87
68804;SHT31;55787;52.678;13.314;2023-04-01T01:36:54;9.00;99.85
68804;SHT31;55787;52.678;13.314;2023-04-01T01:39:26;9.04;99.81
68804;SHT31;55787;52.678;13.314;2023-04-01T01:42:02;9.01;99.85
68804;SHT31;55787;52.678;13.314;2023-04-01T01:44:30;9.01;99.84
68804;SHT31;55787;52.678;13.314;2023-04-01T01:46:57;9.02;99.87
68804;SHT31;55787;52.678;13.314;2023-04-01T01:49:24;9.00;99.92
68804;SHT31;55787;52.678;13.314;2023-04-01T01:51:52;9.01;99.99
68804;SHT31;55787;52.678;13.314;2023-04-01T01:54:19;9.02;99.99
68804;SHT31;55787;52.678;13.314;2023-04-01T01:56:49;9.00;99.99
68804;SHT31;55787;52.678;13.314;2023-04-01T01:59:20;8.98;99.99
68804;SHT31;55787;52.678;13.314;2023-04-01T02:01:50;9.01;99.99
68804;SHT31;55787;52.678;13.314;2023-04-01T02:04:19;8.98;99.99
68804;SHT31;55787;52.678;13.314;2023-04-01T02:06:51;9.00;99.99
68804;SHT31;55787;52.678;13.314;2023-04-01T02:09:20;9.01;99.99
68804;SHT31;55787;52.678;13.314;2023-04-01T02:11:59;9.00;99.99
68804;SHT31;55787;52.678;13.314;2023-04-01T02:14:37;9.00;99.99
68804;SHT31;55787;52.678;13.314;2023-04-01T02:17:12;9.00;99.99
68804;SHT31;55787;52.678;13.314;2023-04-01T02:19:46;9.00;99.99
68804;SHT31;55787;52.678;13.314;2023-04-01T02:22:18;9.00;99.99
68804;SHT31;55787;52.678;13.314;2023-04-01T02:24:45;8.98;99.99
68804;SHT31;55787;52.678;13.314;2023-04-01T02:27:12;8.97;99.99
68804;SHT31;55787;52.678;13.314;2023-04-01T02:29:39;9.01;99.99
68804;SHT31;55787;52.678;13.314;2023-04-01T02:32:06;8.97;99.99
68804;SHT31;55787;52.678;13.314;2023-04-01T02:34:34;8.97;99.99
68804;SHT31;55787;52.678;13.314;2023-04-01T02:37:01;8.95;99.99
68804;SHT31;55787;52.678;13.314;2023-04-01T02:39:28;8.95;99.99
68804;SHT31;55787;52.678;13.314;2023-04-01T02:41:54;8.97;99.99
68804;SHT31;55787;52.678;13.314;2023-04-01T02:44:21;8.94;99.99
68804;SHT31;55787;52.678;13.314;2023-04-01T02:46:48;8.94;99.99
68804;SHT31;55787;52.678;13.314;2023-04-01T02:49:14;8.95;99.99
68804;SHT31;55787;52.678;13.314;2023-04-01T02:51:41;8.97;99.99
68804;SHT31;55787;52.678;13.314;2023-04-01T02:54:07;8.95;99.99
68804;SHT31;55787;52.678;13.314;2023-04-01T02:56:34;8.95;99.99
68804;SHT31;55787;52.678;13.314;2023-04-01T02:59:00;8.97;99.99
68804;SHT31;55787;52.678;13.314;2023-04-01T03:01:27;8.97;99.99
68804;SHT31;55787;52.678;13.314;2023-04-01T03:03:54;8.95;99.99
68804;SHT31;55787;52.678;13.314;2023-04-01T03:06:20;8.95;99.99
68804;SHT31;55787;52.678;13.314;2023-04-01T03:08:47;8.94;99.99
68804;SHT31;55787;52.678;13.314;2023-04-01T03:11:13;8.94;99.99
68804;SHT31;55787;52.678;13.314;2023-04-01T03:13:40;8.94;99.99
68804;SHT31;55787;52.678;13.314;2023-04-01T03:16:07;8.92;99.99
68804;SHT31;55787;52.678;13.314;2023-04-01T03:18:33;8.92;99.99
68804;SHT31;55787;52.678;13.314;2023-04-01T03:21:17;8.94;99.99
68804;SHT31;55787;52.678;13.314;2023-04-01T03:23:45;8.95;99.99
68804;SHT31;55787;52.678;13.314;2023-04-01T03:26:11;8.97;99.99
68804;SHT31;55787;52.678;13.314;2023-04-01T03:28:38;8.94;99.99
68804;SHT31;55787;52.678;13.314;2023-04-01T03:31:05;8.97;99.99
68804;SHT31;55787;52.678;13.314;2023-04-01T03:33:32;8.95;99.99
68804;SHT31;55787;52.678;13.314;2023-04-01T03:35:59;8.97;99.99
68804;SHT31;55787;52.678;13.314;2023-04-01T03:38:26;8.97;99.99
68804;SHT31;55787;52.678;13.314;2023-04-01T03:40:53;9.00;99.99
68804;SHT31;55787;52.678;13.314;2023-04-01T03:43:19;8.98;99.99
68804;SHT31;55787;52.678;13.314;2023-04-01T03:45:48;8.98;99.99
68804;SHT31;55787;52.678;13.314;2023-04-01T03:48:15;8.97;99.99
68804;SHT31;55787;52.678;13.314;2023-04-01T03:50:42;9.00;99.99
68804;SHT31;55787;52.678;13.314;2023-04-01T03:53:09;8.97;99.99
68804;SHT31;55787;52.678;13.314;2023-04-01T03:55:36;9.00;99.99
68804;SHT31;55787;52.678;13.314;2023-04-01T03:58:04;8.97;99.99
68804;SHT31;55787;52.678;13.314;2023-04-01T04:00:31;8.97;99.99
68804;SHT31;55787;52.678;13.314;2023-04-01T04:02:59;8.97;99.99
68804;SHT31;55787;52.678;13.314;2023-04-01T04:05:29;9.00;99.99
68804;SHT31;55787;52.678;13.314;2023-04-01T04:07:56;8.95;99.99
68804;SHT31;55787;52.678;13.314;2023-04-01T04:10:22;8.95;99.99
68804;SHT31;55787;52.678;13.314;2023-04-01T04:12:51;8.98;99.99
68804;SHT31;55787;52.678;13.314;2023-04-01T04:15:18;8.98;99.99
68804;SHT31;55787;52.678;13.314;2023-04-01T04:17:45;8.98;99.99
68804;SHT31;55787;52.678;13.314;2023-04-01T04:20:12;8.97;99.99
68804;SHT31;55787;52.678;13.314;2023-04-01T04:22:39;8.97;99.99
68804;SHT31;55787;52.678;13.314;2023-04-01T04:25:07;8.97;99.99
68804;SHT31;55787;52.678;13.314;2023-04-01T04:27:34;8.97;99.99
68804;SHT31;55787;52.678;13.314;2023-04-01T04:30:01;8.97;99.99
68804;SHT31;55787;52.678;13.314;2023-04-01T04:32:28;8.98;99.99
68804;SHT31;55787;52.678;13.314;2023-04-01T04:34:56;8.98;99.99
68804;SHT31;55787;52.678;13.314;2023-04-01T04:37:23;8.95;99.99
68804;SHT31;55787;52.678;13.314;2023-04-01T04:39:49;8.95;99.99
68804;SHT31;55787;52.678;13.314;2023-04-01T04:42:16;8.98;99.99
68804;SHT31;55787;52.678;13.314;2023-04-01T04:44:42;8.98;99.99
68804;SHT31;55787;52.678;13.314;2023-04-01T04:47:09;8.98;99.99
68804;SHT31;55787;52.678;13.314;2023-04-01T04:49:36;8.97;99.99
68804;SHT31;55787;52.678;13.314;2023-04-01T04:52:03;8.97;99.99
68804;SHT31;55787;52.678;13.314;2023-04-01T04:54:29;8.97;99.99
68804;SHT31;55787;52.678;13.314;2023-04-01T04:56:56;8.95;99.99
68804;SHT31;55787;52.678;13.314;2023-04-01T04:59:22;8.97;99.99
68804;SHT31;55787;52.678;13.314;2023-04-01T05:01:49;8.95;99.99
68804;SHT31;55787;52.678;13.314;2023-04-01T05:04:16;8.97;99.99
68804;SHT31;55787;52.678;13.314;2023-04-01T05:06:43;8.98;99.99
68804;SHT31;55787;52.678;13.314;2023-04-01T05:09:11;8.98;99.99
68804;SHT31;55787;52.678;13.314;2023-04-01T05:11:37;9.00;99.99
68804;SHT31;55787;52.678;13.314;2023-04-01T05:14:04;9.01;99.99
68804;SHT31;55787;52.678;13.314;2023-04-01T05:16:30;9.02;99.99
68804;SHT31;55787;52.678;13.314;2023-04-01T05:18:58;9.02;99.99
68804;SHT31;55787;52.678;13.314;2023-04-01T05:21:25;9.02;99.99
68804;SHT31;55787;52.678;13.314;2023-04-01T05:23:51;9.04;99.99
68804;SHT31;55787;52.678;13.314;2023-04-01T05:26:18;9.07;99.99
68804;SHT31;55787;52.678;13.314;2023-04-01T05:28:44;9.05;99.99
68804;SHT31;55787;52.678;13.314;2023-04-01T05:31:11;9.07;99.99
68804;SHT31;55787;52.678;13.314;2023-04-01T05:33:38;9.08;99.99
68804;SHT31;55787;52.678;13.314;2023-04-01T05:36:15;9.11;99.99
68804;SHT31;55787;52.678;13.314;2023-04-01T05:38:42;9.12;99.99
68804;SHT31;55787;52.678;13.314;2023-04-01T05:41:12;9.14;99.99
68804;SHT31;55787;52.678;13.314;2023-04-01T05:43:40;9.11;99.99
68804;SHT31;55787;52.678;13.314;2023-04-01T05:46:06;9.16;99.99
68804;SHT31;55787;52.678;13.314;2023-04-01T05:48:34;9.15;99.99
68804;SHT31;55787;52.678;13.314;2023-04-01T05:51:04;9.18;99.99
68804;SHT31;55787;52.678;13.314;2023-04-01T05:53:31;9.21;99.99
68804;SHT31;55787;52.678;13.314;2023-04-01T05:56:02;9.21;99.99
68804;SHT31;55787;52.678;13.314;2023-04-01T05:58:29;9.22;99.99
68804;SHT31;55787;52.678;13.314;2023-04-01T06:01:07;9.26;99.99
68804;SHT31;55787;52.678;13.314;2023-04-01T06:03:41;9.32;99.99
68804;SHT31;55787;52.678;13.314;2023-04-01T06:06:28;9.31;99.99
68804;SHT31;55787;52.678;13.314;2023-04-01T06:08:57;9.32;99.99
68804;SHT31;55787;52.678;13.314;2023-04-01T06:14:31;9.36;99.99
68804;SHT31;55787;52.678;13.314;2023-04-01T06:27:50;9.39;99.99
68804;SHT31;55787;52.678;13.314;2023-04-01T06:33:35;9.39;99.99
68804;SHT31;55787;52.678;13.314;2023-04-01T06:36:21;9.40;99.99
68804;SHT31;55787;52.678;13.314;2023-04-01T06:49:40;9.50;99.99
68804;SHT31;55787;52.678;13.314;2023-04-01T06:54:49;9.59;99.99
68804;SHT31;55787;52.678;13.314;2023-04-01T06:57:55;9.60;99.91
68804;SHT31;55787;52.678;13.314;2023-04-01T07:00:40;9.63;99.79
68804;SHT31;55787;52.678;13.314;2023-04-01T07:05:46;9.60;97.69
68804;SHT31;55787;52.678;13.314;2023-04-01T07:08:17;9.55;97.64
68804;SHT31;55787;52.678;13.314;2023-04-01T07:11:06;9.49;97.75
68804;SHT31;55787;52.678;13.314;2023-04-01T07:16:13;9.38;97.67
68804;SHT31;55787;52.678;13.314;2023-04-01T07:18:45;9.28;97.58
68804;SHT31;55787;52.678;13.314;2023-04-01T07:21:23;9.24;97.38
68804;SHT31;55787;52.678;13.314;2023-04-01T07:23:52;9.18;97.45
68804;SHT31;55787;52.678;13.314;2023-04-01T07:26:23;9.19;97.72
68804;SHT31;55787;52.678;13.314;2023-04-01T07:28:51;9.11;97.43
68804;SHT31;55787;52.678;13.314;2023-04-01T07:34:01;9.10;97.39
68804;SHT31;55787;52.678;13.314;2023-04-01T07:36:40;9.04;97.09
68804;SHT31;55787;52.678;13.314;2023-04-01T07:39:27;8.94;97.15
68804;SHT31;55787;52.678;13.314;2023-04-01T07:47:33;8.81;96.54
68804;SHT31;55787;52.678;13.314;2023-04-01T07:50:29;8.77;96.72
68804;SHT31;55787;52.678;13.314;2023-04-01T07:56:12;8.73;96.64
68804;SHT31;55787;52.678;13.314;2023-04-01T08:07:23;8.73;96.19
68804;SHT31;55787;52.678;13.314;2023-04-01T08:13:34;8.80;96.80
68804;SHT31;55787;52.678;13.314;2023-04-01T08:18:46;8.81;96.33
68804;SHT31;55787;52.678;13.314;2023-04-01T08:21:21;8.74;96.13
68804;SHT31;55787;52.678;13.314;2023-04-01T08:23:51;8.77;96.11
68804;SHT31;55787;52.678;13.314;2023-04-01T08:26:38;8.77;96.15
68804;SHT31;55787;52.678;13.314;2023-04-01T08:29:13;8.75;96.31
68804;SHT31;55787;52.678;13.314;2023-04-01T08:34:36;8.88;96.63
68804;SHT31;55787;52.678;13.314;2023-04-01T08:37:25;8.88;95.28
68804;SHT31;55787;52.678;13.314;2023-04-01T08:40:50;8.91;95.66
68804;SHT31;55787;52.678;13.314;2023-04-01T08:45:48;8.94;95.67
68804;SHT31;55787;52.678;13.314;2023-04-01T08:48:32;8.94;95.68
68804;SHT31;55787;52.678;13.314;2023-04-01T08:54:23;8.94;95.44
68804;SHT31;55787;52.678;13.314;2023-04-01T08:57:13;9.01;94.92
68804;SHT31;55787;52.678;13.314;2023-04-01T09:08:31;8.85;94.94
68804;SHT31;55787;52.678;13.314;2023-04-01T09:11:21;8.91;95.70
68804;SHT31;55787;52.678;13.314;2023-04-01T09:14:03;8.98;94.77
68804;SHT31;55787;52.678;13.314;2023-04-01T09:19:19;9.00;94.42
68804;SHT31;55787;52.678;13.314;2023-04-01T09:30:33;9.02;94.37
68804;SHT31;55787;52.678;13.314;2023-04-01T09:38:59;8.95;94.71
68804;SHT31;55787;52.678;13.314;2023-04-01T09:44:36;8.95;94.30
68804;SHT31;55787;52.678;13.314;2023-04-01T09:50:39;8.95;94.21
68804;SHT31;55787;52.678;13.314;2023-04-01T09:53:28;9.04;94.56
68804;SHT31;55787;52.678;13.314;2023-04-01T10:30:18;8.78;93.08
68804;SHT31;55787;52.678;13.314;2023-04-01T10:33:15;8.77;93.88
68804;SHT31;55787;52.678;13.314;2023-04-01T11:02:07;9.01;93.98
68804;SHT31;55787;52.678;13.314;2023-04-01T11:21:35;8.94;93.38
68804;SHT31;55787;52.678;13.314;2023-04-01T11:29:57;8.91;92.55
68804;SHT31;55787;52.678;13.314;2023-04-01T11:40:47;8.64;94.65
68804;SHT31;55787;52.678;13.314;2023-04-01T11:43:47;8.77;94.18
68804;SHT31;55787;52.678;13.314;2023-04-01T11:49:24;8.94;92.99
68804;SHT31;55787;52.678;13.314;2023-04-01T11:52:04;8.89;92.69
68804;SHT31;55787;52.678;13.314;2023-04-01T12:09:22;8.84;92.73
68804;SHT31;55787;52.678;13.314;2023-04-01T12:14:38;8.74;92.32
68804;SHT31;55787;52.678;13.314;2023-04-01T12:20:37;8.91;92.33
68804;SHT31;55787;52.678;13.314;2023-04-01T12:22:56;8.92;92.99
68804;SHT31;55787;52.678;13.314;2023-04-01T12:31:42;8.64;92.88
68804;SHT31;55787;52.678;13.314;2023-04-01T12:42:42;8.44;93.11
68804;SHT31;55787;52.678;13.314;2023-04-01T12:48:09;8.42;92.75
68804;SHT31;55787;52.678;13.314;2023-04-01T12:53:38;8.15;93.12
68804;SHT31;55787;52.678;13.314;2023-04-01T12:56:14;8.09;93.43
68804;SHT31;55787;52.678;13.314;2023-04-01T13:02:05;8.15;93.58
68804;SHT31;55787;52.678;13.314;2023-04-01T13:10:01;8.19;92.99
68804;SHT31;55787;52.678;13.314;2023-04-01T13:18:43;8.02;94.81
68804;SHT31;55787;52.678;13.314;2023-04-01T13:21:27;7.98;94.29
68804;SHT31;55787;52.678;13.314;2023-04-01T13:29:32;8.05;93.28
68804;SHT31;55787;52.678;13.314;2023-04-01T13:32:09;7.92;93.31
68804;SHT31;55787;52.678;13.314;2023-04-01T13:42:59;7.82;93.54
68804;SHT31;55787;52.678;13.314;2023-04-01T13:48:50;7.88;93.25
68804;SHT31;55787;52.678;13.314;2023-04-01T13:51:36;7.86;93.89
68804;SHT31;55787;52.678;13.314;2023-04-01T14:08:47;7.61;93.22
68804;SHT31;55787;52.678;13.314;2023-04-01T14:14:32;7.44;93.23
68804;SHT31;55787;52.678;13.314;2023-04-01T14:17:36;7.40;92.72
68804;SHT31;55787;52.678;13.314;2023-04-01T14:20:10;7.33;93.30
68804;SHT31;55787;52.678;13.314;2023-04-01T14:28:24;7.16;93.42
68804;SHT31;55787;52.678;13.314;2023-04-01T14:31:18;7.20;93.88
68804;SHT31;55787;52.678;13.314;2023-04-01T14:34:04;7.14;93.80
68804;SHT31;55787;52.678;13.314;2023-04-01T14:42:21;7.06;93.49
68804;SHT31;55787;52.678;13.314;2023-04-01T14:47:56;7.02;92.97
68804;SHT31;55787;52.678;13.314;2023-04-01T14:50:25;7.03;93.14
68804;SHT31;55787;52.678;13.314;2023-04-01T14:53:31;7.03;92.98
68804;SHT31;55787;52.678;13.314;2023-04-01T14:56:01;6.92;93.65
68804;SHT31;55787;52.678;13.314;2023-04-01T14:58:44;6.95;92.60
68804;SHT31;55787;52.678;13.314;2023-04-01T15:01:44;6.82;93.30
68804;SHT31;55787;52.678;13.314;2023-04-01T15:07:52;6.82;92.28
68804;SHT31;55787;52.678;13.314;2023-04-01T15:10:45;6.72;93.67
68804;SHT31;55787;52.678;13.314;2023-04-01T15:19:12;6.69;93.94
68804;SHT31;55787;52.678;13.314;2023-04-01T15:21:50;6.73;93.13
68804;SHT31;55787;52.678;13.314;2023-04-01T15:24:24;6.78;94.24
68804;SHT31;55787;52.678;13.314;2023-04-01T15:32:02;6.78;93.75
68804;SHT31;55787;52.678;13.314;2023-04-01T15:34:47;6.59;93.05
68804;SHT31;55787;52.678;13.314;2023-04-01T15:40:20;6.54;92.74
68804;SHT31;55787;52.678;13.314;2023-04-01T16:05:25;6.35;93.72
68804;SHT31;55787;52.678;13.314;2023-04-01T16:11:18;6.31;94.01
68804;SHT31;55787;52.678;13.314;2023-04-01T16:14:22;6.27;93.68
68804;SHT31;55787;52.678;13.314;2023-04-01T16:17:18;6.16;93.44
68804;SHT31;55787;52.678;13.314;2023-04-01T16:20:21;6.14;93.78
68804;SHT31;55787;52.678;13.314;2023-04-01T16:26:02;6.13;92.96
68804;SHT31;55787;52.678;13.314;2023-04-01T16:28:42;6.04;92.91
68804;SHT31;55787;52.678;13.314;2023-04-01T16:31:38;6.06;93.36
68804;SHT31;55787;52.678;13.314;2023-04-01T16:34:22;6.04;93.17
68804;SHT31;55787;52.678;13.314;2023-04-01T16:37:10;6.00;93.48
68804;SHT31;55787;52.678;13.314;2023-04-01T16:40:09;5.89;94.00
68804;SHT31;55787;52.678;13.314;2023-04-01T16:43:19;5.77;93.92
68804;SHT31;55787;52.678;13.314;2023-04-01T16:46:28;5.80;94.27
68804;SHT31;55787;52.678;13.314;2023-04-01T16:51:31;5.85;94.18
68804;SHT31;55787;52.678;13.314;2023-04-01T16:54:13;5.82;94.17
68804;SHT31;55787;52.678;13.314;2023-04-01T16:59:32;5.83;93.78
68804;SHT31;55787;52.678;13.314;2023-04-01T17:02:10;5.74;93.50
68804;SHT31;55787;52.678;13.314;2023-04-01T17:07:34;5.58;93.67
68804;SHT31;55787;52.678;13.314;2023-04-01T17:10:25;5.56;93.82
68804;SHT31;55787;52.678;13.314;2023-04-01T17:16:12;5.38;94.13
68804;SHT31;55787;52.678;13.314;2023-04-01T17:19:05;5.36;94.03
68804;SHT31;55787;52.678;13.314;2023-04-01T17:25:09;5.21;94.72
68804;SHT31;55787;52.678;13.314;2023-04-01T17:33:15;5.11;95.32
68804;SHT31;55787;52.678;13.314;2023-04-01T17:41:20;4.95;95.28
68804;SHT31;55787;52.678;13.314;2023-04-01T17:46:56;4.98;95.26
68804;SHT31;55787;52.678;13.314;2023-04-01T17:49:33;4.91;95.61
68804;SHT31;55787;52.678;13.314;2023-04-01T17:58:05;4.79;95.73
68804;SHT31;55787;52.678;13.314;2023-04-01T18:04:22;4.77;95.76
68804;SHT31;55787;52.678;13.314;2023-04-01T18:06:59;4.77;95.96
68804;SHT31;55787;52.678;13.314;2023-04-01T18:12:25;4.79;96.23
68804;SHT31;55787;52.678;13.314;2023-04-01T18:15:17;4.74;96.38
68804;SHT31;55787;52.678;13.314;2023-04-01T18:17:55;4.73;96.61
68804;SHT31;55787;52.678;13.314;2023-04-01T18:20:42;4.73;96.26
68804;SHT31;55787;52.678;13.314;2023-04-01T18:25:47;4.64;97.02
68804;SHT31;55787;52.678;13.314;2023-04-01T18:28:30;4.67;96.40
68804;SHT31;55787;52.678;13.314;2023-04-01T18:31:06;4.59;95.66
68804;SHT31;55787;52.678;13.314;2023-04-01T18:39:04;4.52;95.35
68804;SHT31;55787;52.678;13.314;2023-04-01T18:41:42;4.54;95.83
68804;SHT31;55787;52.678;13.314;2023-04-01T18:44:27;4.49;95.93
68804;SHT31;55787;52.678;13.314;2023-04-01T18:47:05;4.43;95.41
68804;SHT31;55787;52.678;13.314;2023-04-01T18:49:43;4.40;95.77
68804;SHT31;55787;52.678;13.314;2023-04-01T18:52:20;4.39;95.76
68804;SHT31;55787;52.678;13.314;2023-04-01T18:57:50;4.39;95.35
68804;SHT31;55787;52.678;13.314;2023-04-01T19:00:32;4.32;95.68
68804;SHT31;55787;52.678;13.314;2023-04-01T19:03:07;4.29;95.61
68804;SHT31;55787;52.678;13.314;2023-04-01T19:05:40;4.26;95.82
68804;SHT31;55787;52.678;13.314;2023-04-01T19:08:32;4.25;95.67
68804;SHT31;55787;52.678;13.314;2023-04-01T19:19:00;4.13;95.67
68804;SHT31;55787;52.678;13.314;2023-04-01T19:34:59;4.11;96.00
68804;SHT31;55787;52.678;13.314;2023-04-01T19:45:34;3.94;95.92
68804;SHT31;55787;52.678;13.314;2023-04-01T19:48:48;3.95;96.47
68804;SHT31;55787;52.678;13.314;2023-04-01T19:50:58;3.92;95.87
68804;SHT31;55787;52.678;13.314;2023-04-01T19:58:50;3.87;95.54
68804;SHT31;55787;52.678;13.314;2023-04-01T20:01:35;3.81;95.58
68804;SHT31;55787;52.678;13.314;2023-04-01T20:04:16;3.84;95.79
68804;SHT31;55787;52.678;13.314;2023-04-01T20:06:54;3.81;95.69
68804;SHT31;55787;52.678;13.314;2023-04-01T20:12:07;3.85;95.69
68804;SHT31;55787;52.678;13.314;2023-04-01T20:14:40;3.80;95.57
68804;SHT31;55787;52.678;13.314;2023-04-01T20:25:15;3.71;95.67
68804;SHT31;55787;52.678;13.314;2023-04-01T20:27:58;3.73;95.58
68804;SHT31;55787;52.678;13.314;2023-04-01T20:33:33;3.74;94.53
68804;SHT31;55787;52.678;13.314;2023-04-01T20:36:22;3.54;94.56
68804;SHT31;55787;52.678;13.314;2023-04-01T20:42:00;3.50;94.11
68804;SHT31;55787;52.678;13.314;2023-04-01T20:44:46;3.51;94.04
68804;SHT31;55787;52.678;13.314;2023-04-01T20:50:28;3.51;94.01
68804;SHT31;55787;52.678;13.314;2023-04-01T20:53:07;3.44;94.54
68804;SHT31;55787;52.678;13.314;2023-04-01T21:03:48;3.49;94.83
68804;SHT31;55787;52.678;13.314;2023-04-01T21:06:32;3.44;93.85
68804;SHT31;55787;52.678;13.314;2023-04-01T21:09:11;3.40;94.55
68804;SHT31;55787;52.678;13.314;2023-04-01T21:12:15;3.40;94.00
68804;SHT31;55787;52.678;13.314;2023-04-01T21:27:09;3.30;92.61
68804;SHT31;55787;52.678;13.314;2023-04-01T21:38:12;3.24;92.73
68804;SHT31;55787;52.678;13.314;2023-04-01T21:49:43;3.20;92.50
68804;SHT31;55787;52.678;13.314;2023-04-01T22:00:33;3.20;91.07
68804;SHT31;55787;52.678;13.314;2023-04-01T22:03:34;3.18;92.04
68804;SHT31;55787;52.678;13.314;2023-04-01T22:06:25;3.15;92.23
68804;SHT31;55787;52.678;13.314;2023-04-01T22:09:13;3.20;92.55
68804;SHT31;55787;52.678;13.314;2023-04-01T22:14:24;3.18;91.88
68804;SHT31;55787;52.678;13.314;2023-04-01T22:16:57;3.22;92.59
68804;SHT31;55787;52.678;13.314;2023-04-01T22:22:22;3.19;92.15
68804;SHT31;55787;52.678;13.314;2023-04-01T22:27:38;3.15;92.58
68804;SHT31;55787;52.678;13.314;2023-04-01T22:30:24;3.10;92.16
68804;SHT31;55787;52.678;13.314;2023-04-01T22:39:34;3.19;91.08
68804;SHT31;55787;52.678;13.314;2023-04-01T22:44:17;3.13;91.44
68804;SHT31;55787;52.678;13.314;2023-04-01T22:47:14;3.12;91.37
68804;SHT31;55787;52.678;13.314;2023-04-01T22:50:16;3.13;90.29
68804;SHT31;55787;52.678;13.314;2023-04-01T22:52:52;3.18;89.89
68804;SHT31;55787;52.678;13.314;2023-04-01T22:55:24;3.16;89.46
68804;SHT31;55787;52.678;13.314;2023-04-01T22:57:57;3.18;89.10
68804;SHT31;55787;52.678;13.314;2023-04-01T23:03:14;3.08;89.92
68804;SHT31;55787;52.678;13.314;2023-04-01T23:06:03;3.08;88.99
68804;SHT31;55787;52.678;13.314;2023-04-01T23:09:01;3.02;89.45
68804;SHT31;55787;52.678;13.314;2023-04-01T23:11:36;2.99;90.40
68804;SHT31;55787;52.678;13.314;2023-04-01T23:17:12;3.01;89.55
68804;SHT31;55787;52.678;13.314;2023-04-01T23:22:27;2.99;88.64
68804;SHT31;55787;52.678;13.314;2023-04-01T23:28:03;2.98;89.13
68804;SHT31;55787;52.678;13.314;2023-04-01T23:36:12;2.96;89.28
68804;SHT31;55787;52.678;13.314;2023-04-01T23:38:41;2.98;88.93
68804;SHT31;55787;52.678;13.314;2023-04-01T23:41:27;2.95;88.86
68804;SHT31;55787;52.678;13.314;2023-04-01T23:43:59;2.91;88.93
68804;SHT31;55787;52.678;13.314;2023-04-01T23:46:27;2.91;89.89
68804;SHT31;55787;52.678;13.314;2023-04-01T23:48:55;2.89;88.27
68804;SHT31;55787;52.678;13.314;2023-04-01T23:51:25;3.03;87.98
68804;SHT31;55787;52.678;13.314;2023-04-01T23:56:38;2.95;88.54
68804;SHT31;55787;52.678;13.314;2023-04-01T23:59:16;2.93;88.82
